sensor_id;sensor_type;location;lat;lon;timestamp;P1;durP1;ratioP1;P2;durP2;ratioP2
19002;SDS011;9634;51.040;13.794;2022-08-23T00:02:56;12.77;;;7.90;;
19002;SDS011;9634;51.040;13.794;2022-08-23T00:07:58;9.63;;;6.17;;
19002;SDS011;9634;51.040;13.794;2022-08-23T00:13:01;9.73;;;6.10;;
19002;SDS011;9634;51.040;13.794;2022-08-23T00:18:04;9.67;;;6.60;;
19002;SDS011;9634;51.040;13.794;2022-08-23T00:23:07;10.50;;;6.40;;
19002;SDS011;9634;51.040;13.794;2022-08-23T00:28:09;12.07;;;6.83;;
19002;SDS011;9634;51.040;13.794;2022-08-23T00:33:13;9.07;;;6.77;;
19002;SDS011;9634;51.040;13.794;2022-08-23T00:38:15;12.27;;;6.53;;
19002;SDS011;9634;51.040;13.794;2022-08-23T00:43:19;10.10;;;6.53;;
19002;SDS011;9634;51.040;13.794;2022-08-23T00:48:45;11.60;;;7.10;;
19002;SDS011;9634;51.040;13.794;2022-08-23T00:53:49;9.43;;;6.23;;
19002;SDS011;9634;51.040;13.794;2022-08-23T00:58:53;9.40;;;6.53;;
19002;SDS011;9634;51.040;13.794;2022-08-23T01:03:58;9.97;;;6.10;;
19002;SDS011;9634;51.040;13.794;2022-08-23T01:09:03;10.73;;;6.63;;
19002;SDS011;9634;51.040;13.794;2022-08-23T01:14:09;8.67;;;6.13;;
19002;SDS011;9634;51.040;13.794;2022-08-23T01:19:33;10.77;;;6.50;;
19002;SDS011;9634;51.040;13.794;2022-08-23T01:24:39;8.93;;;6.00;;
19002;SDS011;9634;51.040;13.794;2022-08-23T01:29:42;13.50;;;6.43;;
19002;SDS011;9634;51.040;13.794;2022-08-23T01:34:45;12.40;;;6.20;;
19002;SDS011;9634;51.040;13.794;2022-08-23T01:39:49;14.97;;;6.20;;
19002;SDS011;9634;51.040;13.794;2022-08-23T01:44:52;11.60;;;6.30;;
19002;SDS011;9634;51.040;13.794;2022-08-23T01:49:54;11.17;;;6.40;;
19002;SDS011;9634;51.040;13.794;2022-08-23T01:54:58;12.80;;;6.67;;
19002;SDS011;9634;51.040;13.794;2022-08-23T02:00:02;8.03;;;5.90;;
19002;SDS011;9634;51.040;13.794;2022-08-23T02:05:13;10.70;;;6.40;;
19002;SDS011;9634;51.040;13.794;2022-08-23T02:10:17;11.97;;;6.40;;
19002;SDS011;9634;51.040;13.794;2022-08-23T02:15:20;13.03;;;6.40;;
19002;SDS011;9634;51.040;13.794;2022-08-23T02:20:22;11.67;;;6.10;;
19002;SDS011;9634;51.040;13.794;2022-08-23T02:25:26;12.10;;;7.33;;
19002;SDS011;9634;51.040;13.794;2022-08-23T02:30:28;10.67;;;6.10;;
19002;SDS011;9634;51.040;13.794;2022-08-23T02:35:30;12.53;;;6.33;;
19002;SDS011;9634;51.040;13.794;2022-08-23T02:40:35;10.37;;;6.27;;
19002;SDS011;9634;51.040;13.794;2022-08-23T02:45:37;9.87;;;6.33;;
19002;SDS011;9634;51.040;13.794;2022-08-23T02:50:41;9.67;;;6.23;;
19002;SDS011;9634;51.040;13.794;2022-08-23T02:55:46;10.03;;;6.20;;
19002;SDS011;9634;51.040;13.794;2022-08-23T03:00:48;11.03;;;6.33;;
19002;SDS011;9634;51.040;13.794;2022-08-23T03:05:54;8.83;;;6.37;;
19002;SDS011;9634;51.040;13.794;2022-08-23T03:10:58;9.50;;;6.33;;
19002;SDS011;9634;51.040;13.794;2022-08-23T03:16:02;10.07;;;6.50;;
19002;SDS011;9634;51.040;13.794;2022-08-23T03:21:05;9.33;;;6.70;;
19002;SDS011;9634;51.040;13.794;2022-08-23T03:26:10;12.67;;;7.00;;
19002;SDS011;9634;51.040;13.794;2022-08-23T03:31:14;11.13;;;6.43;;
19002;SDS011;9634;51.040;13.794;2022-08-23T03:36:40;10.63;;;6.67;;
19002;SDS011;9634;51.040;13.794;2022-08-23T03:41:44;9.53;;;6.37;;
19002;SDS011;9634;51.040;13.794;2022-08-23T03:46:46;8.67;;;6.40;;
19002;SDS011;9634;51.040;13.794;2022-08-23T03:51:50;18.77;;;12.73;;
19002;SDS011;9634;51.040;13.794;2022-08-23T03:56:54;10.93;;;6.67;;
19002;SDS011;9634;51.040;13.794;2022-08-23T04:01:59;8.93;;;6.30;;
19002;SDS011;9634;51.040;13.794;2022-08-23T04:07:03;11.43;;;6.50;;
19002;SDS011;9634;51.040;13.794;2022-08-23T04:12:07;9.77;;;6.47;;
19002;SDS011;9634;51.040;13.794;2022-08-23T04:17:09;9.43;;;6.03;;
19002;SDS011;9634;51.040;13.794;2022-08-23T04:22:12;10.50;;;6.13;;
19002;SDS011;9634;51.040;13.794;2022-08-23T04:27:17;10.87;;;6.13;;
19002;SDS011;9634;51.040;13.794;2022-08-23T04:32:21;8.67;;;5.40;;
19002;SDS011;9634;51.040;13.794;2022-08-23T04:37:23;9.63;;;5.70;;
19002;SDS011;9634;51.040;13.794;2022-08-23T04:42:28;8.20;;;5.77;;
19002;SDS011;9634;51.040;13.794;2022-08-23T04:47:31;9.40;;;6.10;;
19002;SDS011;9634;51.040;13.794;2022-08-23T04:52:36;9.87;;;5.77;;
19002;SDS011;9634;51.040;13.794;2022-08-23T04:57:39;9.17;;;6.07;;
19002;SDS011;9634;51.040;13.794;2022-08-23T05:02:43;8.50;;;5.30;;
19002;SDS011;9634;51.040;13.794;2022-08-23T05:07:46;8.17;;;5.77;;
19002;SDS011;9634;51.040;13.794;2022-08-23T05:12:50;12.10;;;6.23;;
19002;SDS011;9634;51.040;13.794;2022-08-23T05:17:54;11.30;;;5.93;;
19002;SDS011;9634;51.040;13.794;2022-08-23T05:22:58;12.80;;;6.70;;
19002;SDS011;9634;51.040;13.794;2022-08-23T05:28:14;10.40;;;6.20;;
19002;SDS011;9634;51.040;13.794;2022-08-23T05:33:17;16.27;;;7.10;;
19002;SDS011;9634;51.040;13.794;2022-08-23T05:38:19;10.65;;;6.80;;
19002;SDS011;9634;51.040;13.794;2022-08-23T05:43:25;10.13;;;6.43;;
19002;SDS011;9634;51.040;13.794;2022-08-23T05:48:28;10.03;;;6.23;;
19002;SDS011;9634;51.040;13.794;2022-08-23T05:53:34;10.73;;;6.77;;
19002;SDS011;9634;51.040;13.794;2022-08-23T05:58:39;9.67;;;6.03;;
19002;SDS011;9634;51.040;13.794;2022-08-23T06:03:42;10.40;;;6.70;;
19002;SDS011;9634;51.040;13.794;2022-08-23T06:08:46;10.03;;;6.83;;
19002;SDS011;9634;51.040;13.794;2022-08-23T06:13:51;15.10;;;7.27;;
19002;SDS011;9634;51.040;13.794;2022-08-23T06:18:58;17.53;;;7.57;;
19002;SDS011;9634;51.040;13.794;2022-08-23T06:24:21;13.53;;;7.30;;
19002;SDS011;9634;51.040;13.794;2022-08-23T06:29:54;10.33;;;7.70;;
19002;SDS011;9634;51.040;13.794;2022-08-23T06:35:05;17.47;;;8.17;;
19002;SDS011;9634;51.040;13.794;2022-08-23T06:40:24;12.37;;;7.83;;
19002;SDS011;9634;51.040;13.794;2022-08-23T06:45:34;14.23;;;8.60;;
19002;SDS011;9634;51.040;13.794;2022-08-23T06:50:40;13.13;;;8.27;;
19002;SDS011;9634;51.040;13.794;2022-08-23T06:56:03;12.50;;;7.83;;
19002;SDS011;9634;51.040;13.794;2022-08-23T07:01:27;11.23;;;7.40;;
19002;SDS011;9634;51.040;13.794;2022-08-23T07:06:48;13.07;;;7.90;;
19002;SDS011;9634;51.040;13.794;2022-08-23T07:11:51;10.73;;;7.00;;
19002;SDS011;9634;51.040;13.794;2022-08-23T07:16:55;14.33;;;7.67;;
19002;SDS011;9634;51.040;13.794;2022-08-23T07:22:01;14.57;;;7.00;;
19002;SDS011;9634;51.040;13.794;2022-08-23T07:27:05;13.67;;;7.67;;
19002;SDS011;9634;51.040;13.794;2022-08-23T07:32:19;12.80;;;7.53;;
19002;SDS011;9634;51.040;13.794;2022-08-23T07:37:22;12.93;;;8.07;;
19002;SDS011;9634;51.040;13.794;2022-08-23T07:42:26;12.97;;;8.10;;
19002;SDS011;9634;51.040;13.794;2022-08-23T07:47:30;14.33;;;8.43;;
19002;SDS011;9634;51.040;13.794;2022-08-23T07:52:33;15.47;;;8.77;;
19002;SDS011;9634;51.040;13.794;2022-08-23T07:57:36;15.77;;;8.73;;
19002;SDS011;9634;51.040;13.794;2022-08-23T08:02:46;14.77;;;9.43;;
19002;SDS011;9634;51.040;13.794;2022-08-23T08:07:56;16.53;;;8.67;;
19002;SDS011;9634;51.040;13.794;2022-08-23T08:12:58;15.27;;;8.43;;
19002;SDS011;9634;51.040;13.794;2022-08-23T08:18:03;13.57;;;9.00;;
19002;SDS011;9634;51.040;13.794;2022-08-23T08:23:24;14.60;;;8.20;;
19002;SDS011;9634;51.040;13.794;2022-08-23T08:28:50;17.13;;;8.33;;
19002;SDS011;9634;51.040;13.794;2022-08-23T08:33:55;16.07;;;8.70;;
19002;SDS011;9634;51.040;13.794;2022-08-23T08:38:58;11.83;;;8.53;;
19002;SDS011;9634;51.040;13.794;2022-08-23T08:44:02;14.43;;;9.70;;
19002;SDS011;9634;51.040;13.794;2022-08-23T08:49:15;19.50;;;9.33;;
19002;SDS011;9634;51.040;13.794;2022-08-23T08:54:25;20.17;;;12.03;;
19002;SDS011;9634;51.040;13.794;2022-08-23T08:59:34;19.30;;;11.13;;
19002;SDS011;9634;51.040;13.794;2022-08-23T09:04:48;19.27;;;12.13;;
19002;SDS011;9634;51.040;13.794;2022-08-23T09:09:59;21.13;;;11.50;;
19002;SDS011;9634;51.040;13.794;2022-08-23T09:15:32;18.90;;;12.60;;
19002;SDS011;9634;51.040;13.794;2022-08-23T09:20:42;17.90;;;11.87;;
19002;SDS011;9634;51.040;13.794;2022-08-23T09:25:51;16.67;;;11.13;;
19002;SDS011;9634;51.040;13.794;2022-08-23T09:30:58;13.77;;;9.90;;
19002;SDS011;9634;51.040;13.794;2022-08-23T09:36:14;12.90;;;9.67;;
19002;SDS011;9634;51.040;13.794;2022-08-23T09:41:23;14.93;;;9.57;;
19002;SDS011;9634;51.040;13.794;2022-08-23T09:46:30;14.13;;;9.43;;
19002;SDS011;9634;51.040;13.794;2022-08-23T09:51:36;15.03;;;9.30;;
19002;SDS011;9634;51.040;13.794;2022-08-23T09:56:49;13.17;;;9.00;;
19002;SDS011;9634;51.040;13.794;2022-08-23T10:01:55;13.00;;;8.73;;
19002;SDS011;9634;51.040;13.794;2022-08-23T10:07:00;13.20;;;8.37;;
19002;SDS011;9634;51.040;13.794;2022-08-23T10:12:26;14.13;;;8.77;;
19002;SDS011;9634;51.040;13.794;2022-08-23T10:17:35;11.53;;;8.27;;
19002;SDS011;9634;51.040;13.794;2022-08-23T10:22:47;15.40;;;8.53;;
19002;SDS011;9634;51.040;13.794;2022-08-23T10:28:14;9.93;;;7.40;;
19002;SDS011;9634;51.040;13.794;2022-08-23T10:33:42;9.17;;;7.27;;
19002;SDS011;9634;51.040;13.794;2022-08-23T10:39:01;10.73;;;7.10;;
19002;SDS011;9634;51.040;13.794;2022-08-23T10:44:14;11.97;;;7.33;;
19002;SDS011;9634;51.040;13.794;2022-08-23T10:49:23;7.93;;;6.40;;
19002;SDS011;9634;51.040;13.794;2022-08-23T10:54:30;8.50;;;6.17;;
19002;SDS011;9634;51.040;13.794;2022-08-23T10:59:45;9.00;;;6.50;;
19002;SDS011;9634;51.040;13.794;2022-08-23T11:04:52;8.73;;;6.00;;
19002;SDS011;9634;51.040;13.794;2022-08-23T11:10:09;10.20;;;6.77;;
19002;SDS011;9634;51.040;13.794;2022-08-23T11:15:27;7.93;;;5.67;;
19002;SDS011;9634;51.040;13.794;2022-08-23T11:20:58;11.00;;;5.57;;
19002;SDS011;9634;51.040;13.794;2022-08-23T11:26:10;9.70;;;4.90;;
19002;SDS011;9634;51.040;13.794;2022-08-23T11:31:29;8.93;;;5.83;;
19002;SDS011;9634;51.040;13.794;2022-08-23T11:36:35;9.53;;;5.63;;
19002;SDS011;9634;51.040;13.794;2022-08-23T11:47:07;7.93;;;5.30;;
19002;SDS011;9634;51.040;13.794;2022-08-23T11:52:20;6.63;;;5.63;;
19002;SDS011;9634;51.040;13.794;2022-08-23T11:57:46;8.37;;;6.10;;
19002;SDS011;9634;51.040;13.794;2022-08-23T12:02:57;6.70;;;5.20;;
19002;SDS011;9634;51.040;13.794;2022-08-23T12:08:25;9.50;;;5.87;;
19002;SDS011;9634;51.040;13.794;2022-08-23T12:13:44;9.67;;;6.27;;
19002;SDS011;9634;51.040;13.794;2022-08-23T12:18:52;7.60;;;5.80;;
19002;SDS011;9634;51.040;13.794;2022-08-23T12:23:58;8.63;;;5.67;;
19002;SDS011;9634;51.040;13.794;2022-08-23T12:29:05;10.30;;;6.73;;
19002;SDS011;9634;51.040;13.794;2022-08-23T12:34:19;10.67;;;5.97;;
19002;SDS011;9634;51.040;13.794;2022-08-23T12:39:27;7.93;;;5.87;;
19002;SDS011;9634;51.040;13.794;2022-08-23T12:44:35;9.43;;;6.07;;
19002;SDS011;9634;51.040;13.794;2022-08-23T12:49:37;6.70;;;5.17;;
19002;SDS011;9634;51.040;13.794;2022-08-23T12:54:40;8.27;;;5.60;;
19002;SDS011;9634;51.040;13.794;2022-08-23T12:59:49;8.80;;;6.37;;
19002;SDS011;9634;51.040;13.794;2022-08-23T13:05:03;8.27;;;5.70;;
19002;SDS011;9634;51.040;13.794;2022-08-23T13:10:10;10.87;;;5.70;;
19002;SDS011;9634;51.040;13.794;2022-08-23T13:20:48;9.23;;;5.43;;
19002;SDS011;9634;51.040;13.794;2022-08-23T13:25:50;8.70;;;4.93;;
19002;SDS011;9634;51.040;13.794;2022-08-23T13:30:58;13.77;;;5.37;;
19002;SDS011;9634;51.040;13.794;2022-08-23T13:36:06;7.90;;;5.47;;
19002;SDS011;9634;51.040;13.794;2022-08-23T13:41:25;9.97;;;5.73;;
19002;SDS011;9634;51.040;13.794;2022-08-23T13:46:32;6.87;;;5.13;;
19002;SDS011;9634;51.040;13.794;2022-08-23T13:51:38;10.17;;;5.73;;
19002;SDS011;9634;51.040;13.794;2022-08-23T13:56:42;9.80;;;5.70;;
19002;SDS011;9634;51.040;13.794;2022-08-23T14:01:48;9.20;;;5.80;;
19002;SDS011;9634;51.040;13.794;2022-08-23T14:06:51;10.90;;;6.40;;
19002;SDS011;9634;51.040;13.794;2022-08-23T14:11:54;13.87;;;6.40;;
19002;SDS011;9634;51.040;13.794;2022-08-23T14:17:00;9.27;;;5.70;;
19002;SDS011;9634;51.040;13.794;2022-08-23T14:22:03;8.77;;;5.50;;
19002;SDS011;9634;51.040;13.794;2022-08-23T14:27:06;9.90;;;5.93;;
19002;SDS011;9634;51.040;13.794;2022-08-23T14:32:10;6.43;;;4.20;;
19002;SDS011;9634;51.040;13.794;2022-08-23T14:37:12;8.50;;;5.20;;
19002;SDS011;9634;51.040;13.794;2022-08-23T14:42:15;6.03;;;4.10;;
19002;SDS011;9634;51.040;13.794;2022-08-23T14:47:22;4.20;;;3.70;;
19002;SDS011;9634;51.040;13.794;2022-08-23T14:52:26;7.03;;;4.07;;
19002;SDS011;9634;51.040;13.794;2022-08-23T14:57:28;6.33;;;4.53;;
19002;SDS011;9634;51.040;13.794;2022-08-23T15:02:32;10.07;;;4.30;;
19002;SDS011;9634;51.040;13.794;2022-08-23T15:07:35;5.77;;;4.10;;
19002;SDS011;9634;51.040;13.794;2022-08-23T15:12:38;6.17;;;4.33;;
19002;SDS011;9634;51.040;13.794;2022-08-23T15:17:45;9.53;;;4.70;;
19002;SDS011;9634;51.040;13.794;2022-08-23T15:22:51;4.57;;;3.63;;
19002;SDS011;9634;51.040;13.794;2022-08-23T15:27:54;9.53;;;4.37;;
19002;SDS011;9634;51.040;13.794;2022-08-23T15:32:58;8.60;;;4.70;;
19002;SDS011;9634;51.040;13.794;2022-08-23T15:38:00;7.90;;;4.30;;
19002;SDS011;9634;51.040;13.794;2022-08-23T15:43:03;8.27;;;4.57;;
19002;SDS011;9634;51.040;13.794;2022-08-23T15:48:10;6.50;;;4.60;;
19002;SDS011;9634;51.040;13.794;2022-08-23T15:53:16;8.03;;;4.73;;
19002;SDS011;9634;51.040;13.794;2022-08-23T15:58:20;8.17;;;4.70;;
19002;SDS011;9634;51.040;13.794;2022-08-23T16:03:26;7.20;;;4.73;;
19002;SDS011;9634;51.040;13.794;2022-08-23T16:08:29;11.30;;;4.20;;
19002;SDS011;9634;51.040;13.794;2022-08-23T16:13:33;7.83;;;4.27;;
19002;SDS011;9634;51.040;13.794;2022-08-23T16:18:37;6.93;;;3.40;;
19002;SDS011;9634;51.040;13.794;2022-08-23T16:23:39;5.03;;;3.60;;
19002;SDS011;9634;51.040;13.794;2022-08-23T16:28:43;5.50;;;3.60;;
19002;SDS011;9634;51.040;13.794;2022-08-23T16:33:48;4.65;;;3.83;;
19002;SDS011;9634;51.040;13.794;2022-08-23T16:38:51;8.60;;;4.40;;
19002;SDS011;9634;51.040;13.794;2022-08-23T16:43:54;8.77;;;4.40;;
19002;SDS011;9634;51.040;13.794;2022-08-23T16:48:58;7.10;;;3.90;;
19002;SDS011;9634;51.040;13.794;2022-08-23T16:54:00;4.97;;;3.60;;
19002;SDS011;9634;51.040;13.794;2022-08-23T16:59:03;7.10;;;4.03;;
19002;SDS011;9634;51.040;13.794;2022-08-23T17:04:08;6.90;;;4.10;;
19002;SDS011;9634;51.040;13.794;2022-08-23T17:09:12;7.57;;;4.27;;
19002;SDS011;9634;51.040;13.794;2022-08-23T17:14:14;7.20;;;4.70;;
19002;SDS011;9634;51.040;13.794;2022-08-23T17:19:19;7.93;;;4.70;;
19002;SDS011;9634;51.040;13.794;2022-08-23T17:24:21;6.40;;;4.57;;
19002;SDS011;9634;51.040;13.794;2022-08-23T17:29:24;8.60;;;4.43;;
19002;SDS011;9634;51.040;13.794;2022-08-23T17:34:28;9.43;;;5.00;;
19002;SDS011;9634;51.040;13.794;2022-08-23T17:39:30;5.43;;;4.20;;
19002;SDS011;9634;51.040;13.794;2022-08-23T17:44:32;8.90;;;4.80;;
19002;SDS011;9634;51.040;13.794;2022-08-23T17:49:36;6.40;;;4.67;;
19002;SDS011;9634;51.040;13.794;2022-08-23T17:54:39;9.03;;;5.13;;
19002;SDS011;9634;51.040;13.794;2022-08-23T17:59:42;10.27;;;6.23;;
19002;SDS011;9634;51.040;13.794;2022-08-23T18:04:46;7.77;;;5.63;;
19002;SDS011;9634;51.040;13.794;2022-08-23T18:09:49;7.97;;;5.43;;
19002;SDS011;9634;51.040;13.794;2022-08-23T18:14:54;7.67;;;5.23;;
19002;SDS011;9634;51.040;13.794;2022-08-23T18:19:58;8.93;;;5.83;;
19002;SDS011;9634;51.040;13.794;2022-08-23T18:25:02;9.40;;;5.87;;
19002;SDS011;9634;51.040;13.794;2022-08-23T18:30:06;11.27;;;6.80;;
19002;SDS011;9634;51.040;13.794;2022-08-23T18:35:12;9.57;;;5.80;;
19002;SDS011;9634;51.040;13.794;2022-08-23T18:40:15;7.57;;;6.23;;
19002;SDS011;9634;51.040;13.794;2022-08-23T18:45:20;11.03;;;5.97;;
19002;SDS011;9634;51.040;13.794;2022-08-23T18:50:24;12.33;;;6.87;;
19002;SDS011;9634;51.040;13.794;2022-08-23T18:55:29;9.40;;;6.17;;
19002;SDS011;9634;51.040;13.794;2022-08-23T19:00:32;7.83;;;6.40;;
19002;SDS011;9634;51.040;13.794;2022-08-23T19:05:36;11.23;;;7.37;;
19002;SDS011;9634;51.040;13.794;2022-08-23T19:10:39;11.63;;;7.07;;
19002;SDS011;9634;51.040;13.794;2022-08-23T19:15:43;10.17;;;7.17;;
19002;SDS011;9634;51.040;13.794;2022-08-23T19:20:47;10.87;;;7.83;;
19002;SDS011;9634;51.040;13.794;2022-08-23T19:25:52;12.30;;;8.23;;
19002;SDS011;9634;51.040;13.794;2022-08-23T19:30:54;12.20;;;8.53;;
19002;SDS011;9634;51.040;13.794;2022-08-23T19:35:58;11.93;;;8.50;;
19002;SDS011;9634;51.040;13.794;2022-08-23T19:41:02;12.17;;;8.33;;
19002;SDS011;9634;51.040;13.794;2022-08-23T19:46:05;16.63;;;7.70;;
19002;SDS011;9634;51.040;13.794;2022-08-23T19:51:16;12.93;;;7.93;;
19002;SDS011;9634;51.040;13.794;2022-08-23T19:56:20;15.50;;;8.83;;
19002;SDS011;9634;51.040;13.794;2022-08-23T20:01:22;14.00;;;8.87;;
19002;SDS011;9634;51.040;13.794;2022-08-23T20:06:26;10.77;;;8.00;;
19002;SDS011;9634;51.040;13.794;2022-08-23T20:11:29;13.07;;;8.60;;
19002;SDS011;9634;51.040;13.794;2022-08-23T20:16:31;12.33;;;8.30;;
19002;SDS011;9634;51.040;13.794;2022-08-23T20:21:36;11.20;;;8.30;;
19002;SDS011;9634;51.040;13.794;2022-08-23T20:26:39;13.87;;;8.90;;
19002;SDS011;9634;51.040;13.794;2022-08-23T20:31:46;11.87;;;9.07;;
19002;SDS011;9634;51.040;13.794;2022-08-23T20:36:50;14.60;;;9.10;;
19002;SDS011;9634;51.040;13.794;2022-08-23T20:41:55;12.83;;;9.50;;
19002;SDS011;9634;51.040;13.794;2022-08-23T20:47:00;16.20;;;10.37;;
19002;SDS011;9634;51.040;13.794;2022-08-23T20:52:03;16.57;;;10.80;;
19002;SDS011;9634;51.040;13.794;2022-08-23T20:57:06;15.17;;;8.87;;
19002;SDS011;9634;51.040;13.794;2022-08-23T21:02:08;12.23;;;9.50;;
19002;SDS011;9634;51.040;13.794;2022-08-23T21:07:12;11.40;;;9.90;;
19002;SDS011;9634;51.040;13.794;2022-08-23T21:12:14;13.70;;;9.40;;
19002;SDS011;9634;51.040;13.794;2022-08-23T21:17:19;13.33;;;10.00;;
19002;SDS011;9634;51.040;13.794;2022-08-23T21:22:22;14.30;;;9.33;;
19002;SDS011;9634;51.040;13.794;2022-08-23T21:27:25;16.33;;;9.67;;
19002;SDS011;9634;51.040;13.794;2022-08-23T21:32:27;15.57;;;9.63;;
19002;SDS011;9634;51.040;13.794;2022-08-23T21:37:31;12.93;;;9.07;;
19002;SDS011;9634;51.040;13.794;2022-08-23T21:42:36;10.67;;;8.30;;
19002;SDS011;9634;51.040;13.794;2022-08-23T21:47:39;12.77;;;8.70;;
19002;SDS011;9634;51.040;13.794;2022-08-23T21:52:42;13.53;;;9.80;;
19002;SDS011;9634;51.040;13.794;2022-08-23T21:57:45;14.30;;;9.90;;
19002;SDS011;9634;51.040;13.794;2022-08-23T22:02:48;15.60;;;9.47;;
19002;SDS011;9634;51.040;13.794;2022-08-23T22:07:53;11.87;;;9.70;;
19002;SDS011;9634;51.040;13.794;2022-08-23T22:12:56;16.40;;;9.40;;
19002;SDS011;9634;51.040;13.794;2022-08-23T22:17:58;12.70;;;9.63;;
19002;SDS011;9634;51.040;13.794;2022-08-23T22:23:03;14.57;;;8.93;;
19002;SDS011;9634;51.040;13.794;2022-08-23T22:28:05;15.40;;;9.17;;
19002;SDS011;9634;51.040;13.794;2022-08-23T22:33:07;12.83;;;9.70;;
19002;SDS011;9634;51.040;13.794;2022-08-23T22:38:11;12.63;;;9.47;;
19002;SDS011;9634;51.040;13.794;2022-08-23T22:43:13;15.63;;;9.43;;
19002;SDS011;9634;51.040;13.794;2022-08-23T22:48:15;12.30;;;9.60;;
19002;SDS011;9634;51.040;13.794;2022-08-23T22:53:19;14.30;;;10.10;;
19002;SDS011;9634;51.040;13.794;2022-08-23T22:58:21;17.90;;;10.57;;
19002;SDS011;9634;51.040;13.794;2022-08-23T23:03:23;19.33;;;9.80;;
19002;SDS011;9634;51.040;13.794;2022-08-23T23:08:27;15.70;;;9.23;;
19002;SDS011;9634;51.040;13.794;2022-08-23T23:13:30;14.13;;;9.93;;
19002;SDS011;9634;51.040;13.794;2022-08-23T23:18:33;11.97;;;8.53;;
19002;SDS011;9634;51.040;13.794;2022-08-23T23:23:37;14.30;;;8.87;;
19002;SDS011;9634;51.040;13.794;2022-08-23T23:28:39;16.73;;;9.63;;
19002;SDS011;9634;51.040;13.794;2022-08-23T23:33:42;12.90;;;10.13;;
19002;SDS011;9634;51.040;13.794;2022-08-23T23:38:59;11.77;;;9.33;;
19002;SDS011;9634;51.040;13.794;2022-08-23T23:44:03;12.07;;;8.90;;
19002;SDS011;9634;51.040;13.794;2022-08-23T23:49:07;13.83;;;10.30;;
19002;SDS011;9634;51.040;13.794;2022-08-23T23:54:14;16.13;;;9.53;;
19002;SDS011;9634;51.040;13.794;2022-08-23T23:59:17;12.97;;;9.87;;
